Time;durP1;ratioP1;P1;durP2;ratioP2;P2;SDS_P1;SDS_P2;PMS_P1;PMS_P2;Temp;Humidity;BMP_temperature;BMP_pressure;BME280_temperature;BME280_humidity;BME280_pressure;Samples;Min_cycle;Max_cycle;Signal;HPM_P1;HPM_P2
2022/01/05 00:00:54;;;;;;;6.85;3.10;;;;;;;-11.47;64.09;100685.94;5079889;28;20060;-60
2022/01/05 00:03:25;;;;;;;6.78;3.08;;;;;;;-11.24;63.99;100717.97;5079648;28;20071;-61
2022/01/05 00:05:56;;;;;;;7.32;3.25;;;;;;;-11.10;64.01;100729.16;5079740;28;20095;-62
2022/01/05 00:08:27;;;;;;;4.35;2.85;;;;;;;-11.10;63.84;100708.97;5079639;28;20448;-60
2022/01/05 00:10:57;;;;;;;5.30;2.92;;;;;;;-11.33;63.68;100660.16;5079682;28;20299;-60
2022/01/05 00:13:28;;;;;;;4.63;2.75;;;;;;;-10.86;63.31;100725.97;5079569;28;20224;-61
2022/01/05 00:16:00;;;;;;;4.72;2.67;;;;;;;-10.83;63.17;100729.47;5079601;28;20091;-61
2022/01/05 00:18:32;;;;;;;8.02;2.97;;;;;;;-10.79;62.97;100736.53;5082210;28;20060;-61
2022/01/05 00:21:04;;;;;;;5.03;2.95;;;;;;;-10.90;63.00;100708.84;5099164;28;20047;-62
2022/01/05 00:23:34;;;;;;;6.05;2.85;;;;;;;-10.96;63.10;100703.31;5099687;28;20056;-63
2022/01/05 00:26:05;;;;;;;4.65;2.70;;;;;;;-10.76;62.87;100734.22;5099745;28;20299;-62
2022/01/05 00:28:36;;;;;;;4.55;3.35;;;;;;;-10.72;63.11;100749.75;5099426;28;20123;-60
2022/01/05 00:31:08;;;;;;;6.68;3.33;;;;;;;-10.65;63.23;100751.09;5099572;28;20055;-60
2022/01/05 00:33:39;;;;;;;8.75;3.55;;;;;;;-10.61;63.04;100752.19;5098352;28;20056;-60
2022/01/05 00:36:10;;;;;;;4.13;2.72;;;;;;;-10.62;62.45;100741.22;5099856;28;20044;-59
2022/01/05 00:38:40;;;;;;;9.10;4.75;;;;;;;-10.44;62.10;100762.78;5099608;28;20409;-60
2022/01/05 00:41:11;;;;;;;14.18;3.67;;;;;;;-10.47;62.06;100752.47;5099701;28;20322;-61
2022/01/05 00:43:42;;;;;;;8.05;3.40;;;;;;;-10.35;62.05;100766.78;5099688;28;20044;-60
2022/01/05 00:46:14;;;;;;;5.88;3.42;;;;;;;-10.34;61.76;100763.50;5099602;28;20040;-60
2022/01/05 00:48:45;;;;;;;4.85;2.67;;;;;;;-10.36;61.77;100749.84;5099055;28;20055;-62
2022/01/05 00:51:16;;;;;;;3.72;2.38;;;;;;;-10.18;61.36;100761.31;5099162;28;20052;-60
2022/01/05 00:54:03;;;;;;;6.88;2.83;;;;;;;-10.20;61.13;100740.09;5099299;28;20054;-59
2022/01/05 00:56:34;;;;;;;4.88;2.58;;;;;;;-10.02;61.07;100749.03;5098996;28;20064;-60
2022/01/05 00:59:05;;;;;;;8.05;3.50;;;;;;;-9.98;60.19;100760.25;5098956;28;20063;-59
2022/01/05 01:01:38;;;;;;;7.90;3.58;;;;;;;-10.01;60.15;100750.78;5098967;28;20606;-60
2022/01/05 01:04:25;;;;;;;7.50;3.25;;;;;;;-9.99;58.94;100739.13;5099131;28;20043;-62
2022/01/05 01:07:13;;;;;;;4.82;2.58;;;;;;;-9.81;58.95;100753.88;5099147;28;20059;-60
2022/01/05 01:10:00;;;;;;;6.50;3.33;;;;;;;-9.82;58.59;100757.19;5099061;28;20051;-62
2022/01/05 01:12:47;;;;;;;4.82;2.88;;;;;;;-9.85;58.17;100734.22;5098953;28;20054;-60
2022/01/05 01:15:18;;;;;;;9.52;3.78;;;;;;;-9.80;58.02;100740.47;5098558;28;20048;-61
2022/01/05 01:17:50;;;;;;;9.43;3.47;;;;;;;-9.66;57.57;100754.09;5098642;28;20054;-62
2022/01/05 01:20:21;;;;;;;9.38;4.55;;;;;;;-9.69;57.43;100739.59;5092310;28;20064;-61
2022/01/05 01:23:10;;;;;;;6.65;3.25;;;;;;;-9.87;56.81;100718.03;5080273;28;20048;-61
2022/01/05 01:25:41;;;;;;;13.82;3.33;;;;;;;-9.61;56.82;100747.72;5085324;28;20128;-60
2022/01/05 01:28:28;;;;;;;6.63;3.15;;;;;;;-9.59;56.47;100747.06;5081802;28;20336;-62
2022/01/05 01:30:58;;;;;;;8.80;3.70;;;;;;;-9.55;56.56;100744.00;5086368;28;20066;-62
2022/01/05 01:33:31;;;;;;;7.10;3.45;;;;;;;-9.52;56.18;100742.44;5081951;28;20083;-59
2022/01/05 01:36:02;;;;;;;7.18;3.40;;;;;;;-9.35;56.31;100736.94;5082710;28;20115;-63
2022/01/05 01:38:32;;;;;;;6.20;3.35;;;;;;;-9.39;55.81;100712.19;5087025;28;20094;-61
2022/01/05 01:41:03;;;;;;;4.93;3.00;;;;;;;-9.22;55.92;100739.53;5088247;28;20046;-60
2022/01/05 01:43:34;;;;;;;6.65;3.25;;;;;;;-9.26;54.94;100727.47;5087423;28;20086;-60
2022/01/05 01:46:05;;;;;;;7.93;2.55;;;;;;;-9.18;54.14;100736.47;5085620;28;20053;-59
2022/01/05 01:48:38;;;;;;;8.07;3.00;;;;;;;-9.20;54.48;100727.88;5086394;28;20079;-61
2022/01/05 01:51:09;;;;;;;9.50;3.10;;;;;;;-9.14;54.36;100733.34;5081298;28;20343;-60
2022/01/05 01:53:39;;;;;;;5.97;3.00;;;;;;;-9.14;54.11;100733.34;5084287;28;20047;-60
2022/01/05 01:56:11;;;;;;;8.82;3.40;;;;;;;-9.08;54.09;100737.09;5074780;28;20099;-61
2022/01/05 01:58:44;;;;;;;6.68;3.78;;;;;;;-9.07;53.55;100736.31;5081215;28;20072;-61
2022/01/05 02:01:16;;;;;;;9.70;3.05;;;;;;;-8.97;53.81;100731.13;5069617;28;20099;-60
2022/01/05 02:03:49;;;;;;;6.90;3.10;;;;;;;-9.03;52.92;100718.06;5087350;28;20059;-64
2022/01/05 02:06:20;;;;;;;4.00;2.30;;;;;;;-8.94;53.31;100728.78;5087774;28;20094;-60
2022/01/05 02:08:51;;;;;;;6.35;3.33;;;;;;;-9.05;53.16;100706.94;5086331;28;20441;-60
2022/01/05 02:11:22;;;;;;;2.92;2.33;;;;;;;-9.28;52.80;100698.63;5085177;28;20052;-61
2022/01/05 02:13:52;;;;;;;7.57;3.67;;;;;;;-9.09;52.83;100720.16;5086305;28;20044;-62
2022/01/05 02:16:29;;;;;;;9.48;4.18;;;;;;;-8.99;53.27;100723.41;5087261;28;20048;-60
2022/01/05 02:19:02;;;;;;;6.90;2.88;;;;;;;-8.91;53.05;100706.19;5087305;28;20087;-61
2022/01/05 02:21:37;;;;;;;6.50;3.15;;;;;;;-8.81;52.53;100708.63;5086353;28;20255;-62
2022/01/05 02:24:09;;;;;;;6.60;3.10;;;;;;;-8.80;53.05;100702.75;5097581;28;20075;-62
2022/01/05 02:26:44;;;;;;;6.13;3.10;;;;;;;-8.75;52.88;100714.09;5091491;28;20055;-60
2022/01/05 02:29:14;;;;;;;6.47;3.17;;;;;;;-8.59;53.01;100721.06;5065902;28;20064;-61
2022/01/05 02:31:45;;;;;;;9.68;2.80;;;;;;;-8.60;52.59;100723.50;5057197;28;20045;-62
2022/01/05 02:34:17;;;;;;;8.73;3.50;;;;;;;-8.69;52.44;100719.56;5091477;28;20052;-62
2022/01/05 02:36:49;;;;;;;7.40;3.40;;;;;;;-8.75;52.36;100711.56;5097419;28;20372;-62
2022/01/05 02:39:20;;;;;;;7.50;3.25;;;;;;;-8.85;52.00;100724.38;5087054;28;20070;-60
2022/01/05 02:41:52;;;;;;;4.53;2.83;;;;;;;-8.94;52.23;100723.72;5086602;28;20091;-60
2022/01/05 02:44:23;;;;;;;7.22;4.05;;;;;;;-8.97;52.73;100714.28;5084032;28;20111;-63
2022/01/05 02:46:53;;;;;;;7.28;3.10;;;;;;;-8.94;52.84;100726.25;5079553;28;20120;-61
2022/01/05 02:49:24;;;;;;;5.93;2.75;;;;;;;-8.90;52.86;100718.97;5077021;28;20040;-61
2022/01/05 02:51:56;;;;;;;5.53;2.90;;;;;;;-8.92;52.60;100724.72;5083571;28;20056;-62
2022/01/05 02:54:27;;;;;;;9.13;3.28;;;;;;;-8.85;52.65;100721.84;5081274;28;20086;-61
2022/01/05 02:56:58;;;;;;;4.40;2.65;;;;;;;-8.82;52.82;100722.03;5081502;28;20398;-61
2022/01/05 02:59:29;;;;;;;7.03;2.90;;;;;;;-8.87;53.03;100692.13;5085865;28;20060;-62
2022/01/05 03:02:01;;;;;;;5.95;2.67;;;;;;;-8.64;53.58;100727.47;5079589;28;20060;-61
2022/01/05 03:04:32;;;;;;;5.65;2.85;;;;;;;-8.68;53.53;100716.25;5082649;28;20330;-61
2022/01/05 03:07:04;;;;;;;4.75;2.72;;;;;;;-8.72;53.40;100709.22;5075547;28;20067;-61
2022/01/05 03:09:35;;;;;;;6.15;2.70;;;;;;;-8.63;53.80;100716.56;5066947;28;20060;-65
2022/01/05 03:12:07;;;;;;;5.47;2.53;;;;;;;-8.52;53.98;100707.16;5067013;28;20076;-62
2022/01/05 03:14:39;;;;;;;8.13;2.85;;;;;;;-8.50;53.37;100713.19;5056146;28;20048;-62
2022/01/05 03:17:10;;;;;;;7.88;2.80;;;;;;;-8.49;53.15;100717.47;5069873;28;20037;-64
2022/01/05 03:19:40;;;;;;;5.30;2.80;;;;;;;-8.62;53.24;100702.25;5077621;28;20123;-62
2022/01/05 03:22:13;;;;;;;9.80;2.95;;;;;;;-8.67;53.49;100717.13;5081032;28;20036;-64
2022/01/05 03:24:44;;;;;;;7.22;3.08;;;;;;;-8.87;53.68;100694.66;5081251;28;20321;-62
2022/01/05 03:27:15;;;;;;;6.13;2.72;;;;;;;-8.95;53.47;100689.06;5082876;28;20044;-64
2022/01/05 03:29:45;;;;;;;9.77;3.45;;;;;;;-8.91;53.27;100711.28;5083000;28;20054;-62
2022/01/05 03:32:16;;;;;;;7.22;2.97;;;;;;;-9.08;53.60;100691.50;5080247;28;20451;-63
2022/01/05 03:34:50;;;;;;;5.88;3.08;;;;;;;-9.08;53.51;100711.75;5081252;28;20119;-62
2022/01/05 03:37:22;;;;;;;9.20;2.90;;;;;;;-9.04;53.70;100708.69;5080758;28;20347;-64
2022/01/05 03:39:53;;;;;;;4.28;2.67;;;;;;;-9.06;53.56;100700.09;5081427;28;20048;-62
2022/01/05 03:42:23;;;;;;;8.15;2.95;;;;;;;-8.97;53.49;100716.81;5080099;28;20249;-62
2022/01/05 03:44:54;;;;;;;4.85;2.53;;;;;;;-8.92;53.16;100714.59;5080987;28;20408;-63
2022/01/05 03:47:25;;;;;;;5.60;2.67;;;;;;;-8.91;53.54;100706.19;5080349;28;20068;-64
2022/01/05 03:49:56;;;;;;;7.22;3.05;;;;;;;-8.88;53.53;100716.56;5082403;28;20105;-63
2022/01/05 03:52:28;;;;;;;4.22;2.40;;;;;;;-8.85;54.00;100720.97;5082469;28;20048;-63
2022/01/05 03:54:59;;;;;;;4.22;2.55;;;;;;;-8.79;53.98;100717.16;5080876;28;20059;-63
2022/01/05 03:57:30;;;;;;;5.18;2.72;;;;;;;-8.92;54.25;100714.59;5082300;28;20051;-63
2022/01/05 04:00:01;;;;;;;6.63;3.20;;;;;;;-9.07;54.56;100683.16;5081518;28;20083;-66
2022/01/05 04:02:31;;;;;;;5.40;2.95;;;;;;;-9.15;54.47;100675.91;5082591;28;20422;-62
2022/01/05 04:05:02;;;;;;;5.03;2.45;;;;;;;-8.74;54.38;100731.03;5080027;28;20046;-65
2022/01/05 04:07:35;;;;;;;4.95;2.45;;;;;;;-8.74;54.42;100720.91;5081602;28;20049;-62
2022/01/05 04:10:07;;;;;;;6.70;2.58;;;;;;;-8.79;53.98;100717.16;5085906;28;20056;-64
2022/01/05 04:12:37;;;;;;;8.43;3.10;;;;;;;-8.77;53.76;100720.69;5085348;28;20049;-65
2022/01/05 04:15:09;;;;;;;6.82;2.95;;;;;;;-8.88;54.25;100701.38;5084797;28;20075;-65
2022/01/05 04:17:40;;;;;;;5.80;2.70;;;;;;;-8.92;53.89;100710.41;5085561;28;20052;-63
2022/01/05 04:20:12;;;;;;;6.65;3.17;;;;;;;-8.82;54.21;100727.09;5085265;28;20556;-63
2022/01/05 04:22:46;;;;;;;4.28;2.50;;;;;;;-9.15;54.61;100675.91;5083543;28;20068;-65
2022/01/05 04:25:16;;;;;;;15.50;4.80;;;;;;;-8.76;54.52;100732.59;5085574;28;20107;-64
2022/01/05 04:27:47;;;;;;;6.25;3.17;;;;;;;-8.74;54.34;100730.16;5085540;28;20149;-65
2022/01/05 04:30:18;;;;;;;6.43;2.70;;;;;;;-8.66;53.97;100748.41;5085527;28;20127;-64
2022/01/05 04:32:49;;;;;;;7.95;2.65;;;;;;;-8.74;54.33;100730.16;5085222;28;20350;-64
2022/01/05 04:35:39;;;;;;;5.95;2.83;;;;;;;-9.43;53.53;100650.38;5085302;28;20047;-64
2022/01/05 04:38:13;;;;;;;4.10;2.67;;;;;;;-8.88;53.90;100757.09;5084231;28;20059;-64
2022/01/05 04:40:45;;;;;;;6.57;2.80;;;;;;;-8.96;54.19;100759.09;5085511;28;20098;-64
2022/01/05 04:43:16;;;;;;;8.82;2.85;;;;;;;-8.96;54.72;100770.84;5083404;28;20048;-63
2022/01/05 04:45:47;;;;;;;4.35;2.75;;;;;;;-9.09;55.63;100770.78;5085653;28;20115;-63
2022/01/05 04:48:18;;;;;;;8.70;2.58;;;;;;;-9.06;59.17;100786.19;5085771;28;20150;-65
2022/01/05 04:50:49;;;;;;;8.85;2.78;;;;;;;-9.16;56.96;100780.50;5085561;28;20083;-64
2022/01/05 04:53:21;;;;;;;6.55;3.08;;;;;;;-9.23;56.76;100778.28;5094224;28;20048;-63
2022/01/05 04:55:53;;;;;;;7.50;2.92;;;;;;;-9.21;56.29;100791.94;5081128;28;20057;-66
2022/01/05 04:58:29;;;;;;;8.48;2.42;;;;;;;-9.29;55.82;100797.22;5063067;28;20087;-64
2022/01/05 05:00:59;;;;;;;3.67;2.70;;;;;;;-9.78;56.22;100744.00;5071349;28;20094;-64
2022/01/05 05:03:30;;;;;;;6.93;2.80;;;;;;;-9.45;56.75;100795.25;5075841;28;20323;-64
2022/01/05 05:06:01;;;;;;;5.82;2.30;;;;;;;-9.41;56.70;100807.34;5058150;28;20076;-64
2022/01/05 05:08:34;;;;;;;5.38;2.42;;;;;;;-9.66;56.73;100790.41;5058511;28;20653;-64
2022/01/05 05:11:04;;;;;;;4.38;2.30;;;;;;;-9.61;57.23;100833.72;5058526;28;20147;-66
2022/01/05 05:13:35;;;;;;;6.72;2.60;;;;;;;-9.73;57.45;100828.66;5063771;28;20061;-64
2022/01/05 05:16:07;;;;;;;8.40;2.88;;;;;;;-10.05;57.54;100769.03;5064637;28;20059;-65
2022/01/05 05:18:37;;;;;;;9.82;3.53;;;;;;;-9.59;57.98;100840.66;5081430;28;20144;-66
2022/01/05 05:21:08;;;;;;;10.25;3.15;;;;;;;-9.64;57.70;100833.50;5069205;28;20048;-64
2022/01/05 05:23:49;;;;;;;11.18;2.50;;;;;;;-9.69;57.71;100840.75;5073240;28;20047;-62
2022/01/05 05:26:20;;;;;;;5.85;2.50;;;;;;;-9.79;57.57;100843.38;5082151;28;20358;-66
2022/01/05 05:28:51;;;;;;;6.68;2.85;;;;;;;-10.03;57.36;100823.09;5072032;28;20054;-64
2022/01/05 05:31:22;;;;;;;5.28;2.70;;;;;;;-10.02;57.64;100855.19;5071961;28;20374;-64
2022/01/05 05:33:52;;;;;;;7.95;3.65;;;;;;;-10.12;57.97;100856.91;5072742;28;20884;-65
2022/01/05 05:36:23;;;;;;;43.60;15.02;;;;;;;-10.26;57.88;100843.22;5072135;28;20111;-65
2022/01/05 05:38:56;;;;;;;45.58;14.95;;;;;;;-10.27;57.80;100861.69;5072388;28;20046;-64
2022/01/05 05:41:26;;;;;;;44.35;13.68;;;;;;;-10.25;57.83;100880.38;5072112;28;20037;-64
2022/01/05 05:43:57;;;;;;;49.40;15.02;;;;;;;-10.56;57.81;100856.97;5072087;28;20070;-64
2022/01/05 05:46:28;;;;;;;44.92;14.45;;;;;;;-10.45;58.03;100886.47;5072311;28;20665;-64
2022/01/05 05:48:59;;;;;;;36.33;11.90;;;;;;;-10.53;58.17;100893.47;5072555;28;20066;-64
2022/01/05 05:51:29;;;;;;;37.50;11.05;;;;;;;-10.55;58.36;100900.03;5073960;28;20362;-65
2022/01/05 05:54:02;;;;;;;12.20;5.82;;;;;;;-10.59;58.30;100903.06;5074181;28;20060;-64
2022/01/05 05:56:33;;;;;;;12.77;5.18;;;;;;;-10.67;58.37;100904.13;5073681;28;20049;-65
2022/01/05 05:59:04;;;;;;;30.38;10.15;;;;;;;-10.75;58.37;100900.13;5074330;28;20121;-66
2022/01/05 06:01:34;;;;;;;12.88;5.72;;;;;;;-10.79;58.81;100872.88;5071406;28;20137;-66
2022/01/05 06:04:06;;;;;;;8.88;4.60;;;;;;;-10.90;58.93;100870.38;5074253;28;20333;-65
2022/01/05 06:06:36;;;;;;;15.63;7.22;;;;;;;-10.79;58.49;100895.59;5073958;28;20093;-64
2022/01/05 06:09:09;;;;;;;12.35;5.78;;;;;;;-10.81;58.64;100904.69;5068453;28;20293;-65
2022/01/05 06:11:40;;;;;;;10.35;4.35;;;;;;;-11.01;58.37;100886.31;5069547;28;20363;-65
2022/01/05 06:14:10;;;;;;;19.35;6.13;;;;;;;-10.93;58.47;100913.06;5065060;28;20112;-62
2022/01/05 06:16:47;;;;;;;16.83;5.10;;;;;;;-11.10;58.19;100895.69;5074075;28;20116;-62
2022/01/05 06:19:18;;;;;;;15.13;6.18;;;;;;;-11.21;58.69;100881.31;5073700;28;20064;-64
2022/01/05 06:21:50;;;;;;;6.30;3.50;;;;;;;-11.17;58.88;100918.66;5056132;28;20116;-64
2022/01/05 06:24:22;;;;;;;7.82;4.07;;;;;;;-11.25;59.17;100905.44;5056736;28;20126;-64
2022/01/05 06:26:53;;;;;;;24.17;8.82;;;;;;;-11.32;59.07;100919.19;5056596;28;20108;-66
2022/01/05 06:32:26;;;;;;;31.85;9.80;;;;;;;-11.48;59.51;100935.47;4943065;29;20061;-78
2022/01/05 06:34:57;;;;;;;18.27;8.35;;;;;;;-11.61;59.56;100926.00;4948571;29;20047;-77
2022/01/05 06:37:28;;;;;;;24.92;9.50;;;;;;;-11.66;59.56;100934.84;4948555;29;20107;-77
2022/01/05 06:40:00;;;;;;;13.73;7.20;;;;;;;-11.80;59.39;100947.19;4953810;29;20063;-78
2022/01/05 06:42:31;;;;;;;13.55;7.25;;;;;;;-11.88;59.85;100948.25;4957870;29;20122;-78
2022/01/05 06:45:04;;;;;;;15.98;6.90;;;;;;;-12.09;60.11;100941.38;4957899;29;20075;-78
2022/01/05 06:47:35;;;;;;;15.98;6.45;;;;;;;-12.01;60.37;100965.59;4947185;29;20055;-77
2022/01/05 06:50:06;;;;;;;13.57;5.60;;;;;;;-12.08;60.63;100963.28;4958073;29;20055;-77
2022/01/05 06:52:37;;;;;;;9.30;4.95;;;;;;;-12.09;61.13;100974.13;4952649;29;20070;-78
2022/01/05 06:55:11;;;;;;;7.63;4.05;;;;;;;-12.53;60.80;100930.94;4958130;29;20067;-76
2022/01/05 06:57:42;;;;;;;10.48;4.80;;;;;;;-12.68;60.82;100936.44;4955531;29;20110;-78
2022/01/05 07:00:14;;;;;;;10.32;4.65;;;;;;;-12.53;61.26;100981.28;4950486;29;20229;-77
2022/01/05 07:02:44;;;;;;;7.32;4.55;;;;;;;-12.68;61.74;100976.69;4951596;29;20056;-77
2022/01/05 07:05:16;;;;;;;22.67;10.20;;;;;;;-12.77;62.02;100985.97;4958078;29;20067;-77
2022/01/05 07:07:46;;;;;;;39.38;16.00;;;;;;;-13.09;62.37;100966.38;4946585;29;20126;-77
2022/01/05 07:10:19;;;;;;;81.70;30.30;;;;;;;-13.23;63.21;100996.97;4952101;29;20137;-79
2022/01/05 07:12:50;;;;;;;35.47;17.20;;;;;;;-13.42;64.12;100993.59;4940217;29;20079;-78
2022/01/05 07:15:21;;;;;;;45.35;18.38;;;;;;;-13.61;64.71;100991.91;4955452;29;20061;-78
2022/01/05 07:17:52;;;;;;;73.25;32.13;;;;;;;-13.73;65.19;100990.81;4954154;29;20066;-77
2022/01/05 07:20:23;;;;;;;20.23;12.00;;;;;;;-13.96;64.70;101007.16;4954685;28;20094;-78
2022/01/05 07:22:54;;;;;;;11.45;7.25;;;;;;;-14.21;65.45;100993.06;4953184;28;20043;-77
2022/01/05 07:25:27;;;;;;;9.30;5.75;;;;;;;-14.26;66.78;100994.28;4953508;29;20047;-78
2022/01/05 07:27:58;;;;;;;9.32;4.55;;;;;;;-14.37;67.16;100996.69;4952679;29;20085;-77
2022/01/05 07:30:31;;;;;;;6.03;3.95;;;;;;;-14.61;67.40;100974.31;4963317;28;20058;-79
2022/01/05 07:33:02;;;;;;;8.52;3.83;;;;;;;-14.89;67.12;100971.69;4965330;28;20991;-78
2022/01/05 07:35:33;;;;;;;25.80;13.07;;;;;;;-14.81;67.83;101003.41;4960517;29;20055;-78
2022/01/05 07:38:05;;;;;;;26.48;13.57;;;;;;;-14.75;68.12;101010.63;4957764;29;20115;-78
2022/01/05 07:40:37;;;;;;;28.05;12.13;;;;;;;-14.74;68.17;101021.56;4959943;28;20051;-79
2022/01/05 07:43:08;;;;;;;9.40;6.10;;;;;;;-14.84;67.97;101010.66;4966830;28;20059;-79
2022/01/05 07:45:39;;;;;;;8.60;5.18;;;;;;;-14.87;67.92;101025.41;4970981;28;21051;-79
2022/01/05 07:48:10;;;;;;;6.57;4.32;;;;;;;-15.03;67.60;101022.16;4963953;28;20124;-80
2022/01/05 07:50:41;;;;;;;9.40;4.93;;;;;;;-15.05;67.74;101023.63;4694542;28;194600;-79
2022/01/05 07:53:12;;;;;;;10.82;5.50;;;;;;;-15.21;67.87;101018.75;4828009;28;29121;-79
2022/01/05 07:55:45;;;;;;;141.55;43.88;;;;;;;-15.55;68.22;101012.03;4954147;29;20096;-79
2022/01/05 07:58:16;;;;;;;70.93;24.63;;;;;;;-15.60;68.81;101025.75;4951864;29;20345;-78
2022/01/05 08:00:48;;;;;;;18.70;10.50;;;;;;;-15.77;69.73;101035.03;4950855;28;20083;-78
2022/01/05 08:03:19;;;;;;;15.88;9.05;;;;;;;-15.81;70.07;101037.94;4959378;29;20110;-78
2022/01/05 08:06:10;;;;;;;11.55;7.45;;;;;;;-15.81;70.23;101049.59;4946048;29;20043;-78
2022/01/05 08:08:42;;;;;;;20.17;8.40;;;;;;;-15.92;70.31;101043.50;4955139;29;20059;-80
2022/01/05 08:11:15;;;;;;;7.55;4.72;;;;;;;-15.97;70.73;101047.13;4952155;29;20058;-78
2022/01/05 08:13:47;;;;;;;11.88;5.47;;;;;;;-16.15;71.80;101019.53;4950101;29;20047;-79
2022/01/05 08:16:18;;;;;;;7.72;4.38;;;;;;;-15.70;71.84;101062.44;4956773;28;20051;-79
2022/01/05 08:18:49;;;;;;;10.20;5.93;;;;;;;-15.96;71.66;101031.41;4954128;28;20055;-79
2022/01/05 08:21:21;;;;;;;12.73;4.90;;;;;;;-15.85;71.33;101060.88;4954787;29;20049;-79
2022/01/05 08:23:52;;;;;;;10.05;5.22;;;;;;;-15.94;71.05;101060.00;4961706;28;20054;-78
2022/01/05 08:26:25;;;;;;;8.70;4.35;;;;;;;-16.03;71.16;101061.56;4962117;28;20087;-78
2022/01/05 08:28:57;;;;;;;18.67;4.93;;;;;;;-15.94;71.42;101080.03;4958328;29;20047;-78
2022/01/05 08:31:28;;;;;;;10.93;4.72;;;;;;;-16.19;71.18;101072.50;4961247;29;20063;-78
2022/01/05 08:33:59;;;;;;;4.97;3.95;;;;;;;-16.21;71.50;101099.00;4960302;29;20047;-79
2022/01/05 08:36:30;;;;;;;5.90;4.47;;;;;;;-16.26;71.57;101095.13;4950132;29;20251;-78
2022/01/05 08:39:02;;;;;;;10.95;4.00;;;;;;;-16.27;71.72;101098.38;4954312;29;20047;-77
2022/01/05 08:41:35;;;;;;;5.40;3.85;;;;;;;-16.29;71.90;101104.84;4951000;29;20112;-78
2022/01/05 08:44:06;;;;;;;5.97;3.92;;;;;;;-16.38;71.89;101104.75;4958515;29;20054;-78
2022/01/05 08:46:37;;;;;;;9.43;4.45;;;;;;;-16.38;71.88;101113.88;4959166;29;20043;-78
2022/01/05 08:49:08;;;;;;;11.05;5.32;;;;;;;-16.36;71.96;101122.44;4956234;29;20059;-79
2022/01/05 08:51:39;;;;;;;9.45;5.25;;;;;;;-16.43;71.71;101127.53;4949068;29;20086;-78
2022/01/05 08:54:10;;;;;;;7.82;4.63;;;;;;;-16.52;71.84;101130.00;4954536;28;20090;-78
2022/01/05 08:56:43;;;;;;;8.30;5.53;;;;;;;-16.61;71.98;101139.91;4950563;29;20048;-78
2022/01/05 08:59:13;;;;;;;20.70;8.68;;;;;;;-16.69;72.44;101135.72;4944737;29;20449;-80
2022/01/05 09:01:44;;;;;;;9.80;5.72;;;;;;;-16.83;72.79;101130.91;4949675;28;20381;-79
2022/01/05 09:04:15;;;;;;;17.15;8.32;;;;;;;-16.87;72.84;101123.81;4951388;28;20118;-79
2022/01/05 09:06:46;;;;;;;5.78;4.35;;;;;;;-16.83;73.33;101135.91;4953214;29;20110;-78
2022/01/05 09:09:17;;;;;;;27.65;11.50;;;;;;;-16.86;73.62;101138.09;4953262;29;20043;-79
2022/01/05 09:11:49;;;;;;;11.05;5.22;;;;;;;-16.83;73.85;101143.41;4947382;29;20071;-79
2022/01/05 09:14:20;;;;;;;12.30;5.95;;;;;;;-16.75;73.58;101142.56;4950635;29;20123;-80
2022/01/05 09:16:52;;;;;;;7.82;4.35;;;;;;;-16.69;73.39;101143.22;4947574;29;20344;-78
2022/01/05 09:19:23;;;;;;;6.65;4.75;;;;;;;-16.75;73.00;101140.94;4953717;29;20346;-78
2022/01/05 09:21:54;;;;;;;12.90;5.43;;;;;;;-16.77;73.14;101147.44;4954387;29;20456;-78
2022/01/05 09:24:44;;;;;;;9.50;5.88;;;;;;;-16.79;72.93;101148.03;4954662;29;20074;-77
2022/01/05 09:27:17;;;;;;;12.82;6.05;;;;;;;-16.90;73.62;101148.50;4950621;29;20099;-77
2022/01/05 09:29:49;;;;;;;10.27;7.10;;;;;;;-17.02;73.48;101146.47;4948050;28;20107;-77
2022/01/05 09:32:20;;;;;;;22.45;10.52;;;;;;;-17.03;74.31;101152.19;4949499;29;20058;-77
2022/01/05 09:34:52;;;;;;;9.38;6.28;;;;;;;-17.12;73.92;101146.22;4952051;29;20063;-78
2022/01/05 09:37:26;;;;;;;17.40;6.38;;;;;;;-17.13;73.66;101159.44;4948447;29;20251;-78
2022/01/05 09:42:46;;;;;;;7.28;4.05;;;;;;;-17.04;74.04;101172.03;4952406;29;20142;-78
2022/01/05 09:45:23;;;;;;;7.72;5.20;;;;;;;-17.07;74.11;101170.09;4951624;29;20055;-79
2022/01/05 09:48:28;;;;;;;15.55;5.57;;;;;;;-17.17;74.00;101167.31;4952333;29;20118;-79
2022/01/05 09:51:03;;;;;;;9.10;4.60;;;;;;;-17.19;74.12;101158.78;4956399;29;20269;-78
2022/01/05 09:53:35;;;;;;;12.07;4.60;;;;;;;-17.21;73.74;101165.22;4952950;29;20114;-77
2022/01/05 09:56:27;;;;;;;10.50;4.70;;;;;;;-17.23;74.05;101176.66;4943855;29;20056;-78
2022/01/05 09:59:01;;;;;;;7.57;3.90;;;;;;;-17.32;73.74;101166.59;4950878;29;20369;-78
2022/01/05 10:01:36;;;;;;;3.47;3.17;;;;;;;-17.33;73.81;101178.91;4946449;29;20051;-80
2022/01/05 10:04:08;;;;;;;4.82;3.42;;;;;;;-17.40;73.70;101174.84;4954620;29;20053;-78
2022/01/05 10:06:39;;;;;;;4.75;3.90;;;;;;;-17.46;74.06;101176.69;4953111;28;20235;-78
2022/01/05 10:09:11;;;;;;;4.45;3.92;;;;;;;-17.59;74.04;101159.47;4950857;29;20043;-78
2022/01/05 10:11:42;;;;;;;5.70;3.70;;;;;;;-17.48;74.13;101164.00;4950273;29;20143;-79
2022/01/05 10:14:16;;;;;;;4.30;3.50;;;;;;;-17.47;73.77;101170.81;4951931;29;20234;-79
2022/01/05 10:17:05;;;;;;;8.95;4.63;;;;;;;-17.50;73.88;101180.44;4948581;29;20043;-80
2022/01/05 10:19:36;;;;;;;;;;;;;;;-17.54;74.06;101188.34;4954895;29;20098;-79
2022/01/05 10:22:29;;;;;;;25.38;8.98;;;;;;;-17.59;74.20;101188.53;4952966;29;20288;-78
2022/01/05 10:25:01;;;;;;;8.02;4.95;;;;;;;-17.56;74.65;101199.75;4957932;29;20047;-77
2022/01/05 10:27:36;;;;;;;10.40;5.03;;;;;;;-17.56;74.13;101184.78;4947114;29;20043;-79
2022/01/05 10:30:13;;;;;;;16.67;7.68;;;;;;;-17.52;74.42;101181.91;4940156;29;20075;-79
2022/01/05 10:32:47;;;;;;;18.02;7.20;;;;;;;-17.42;74.52;101188.75;4951201;29;20056;-78
2022/01/05 10:35:23;;;;;;;4.15;3.75;;;;;;;-17.40;74.26;101183.22;4950812;29;20051;-78
2022/01/05 10:37:59;;;;;;;8.55;4.60;;;;;;;-17.40;74.54;101178.22;4957930;29;20065;-79
2022/01/05 10:40:33;;;;;;;7.32;4.70;;;;;;;-17.43;74.23;101175.38;4957661;28;20047;-79
2022/01/05 10:43:10;;;;;;;10.68;6.80;;;;;;;-17.24;74.80;101189.88;4950097;28;20083;-78
2022/01/05 10:45:45;;;;;;;3.47;3.03;;;;;;;-17.52;74.50;101129.47;4952329;29;20118;-78
2022/01/05 10:48:17;;;;;;;4.40;3.28;;;;;;;-17.93;73.82;101075.97;4947844;28;20044;-78
2022/01/05 10:50:49;;;;;;;12.85;3.42;;;;;;;-17.48;74.04;101159.03;4945930;29;20119;-78
2022/01/05 10:53:21;;;;;;;3.75;3.42;;;;;;;-17.13;74.16;101199.41;4948656;29;20051;-79
2022/01/05 10:55:52;;;;;;;5.03;4.15;;;;;;;-17.17;73.80;101192.28;4945354;29;20055;-79
2022/01/05 10:58:23;;;;;;;4.95;3.63;;;;;;;-17.23;73.53;101206.63;4950867;28;20322;-79
2022/01/05 11:00:57;;;;;;;7.05;4.07;;;;;;;-17.37;73.20;101206.75;4952807;29;20050;-80
2022/01/05 11:03:30;;;;;;;3.45;3.15;;;;;;;-17.22;73.61;101220.91;4951274;29;20091;-77
2022/01/05 11:06:10;;;;;;;35.60;13.20;;;;;;;-17.34;73.22;101222.06;4951975;28;20062;-78
2022/01/05 11:08:52;;;;;;;6.80;3.92;;;;;;;-17.34;73.75;101207.06;4953832;29;20331;-78
2022/01/05 11:11:38;;;;;;;7.10;4.13;;;;;;;-18.34;72.89;101077.34;4949420;28;20276;-79
2022/01/05 11:14:10;;;;;;;4.20;3.80;;;;;;;-17.54;73.40;101213.31;4949157;29;20105;-78
2022/01/05 11:16:46;;;;;;;5.72;4.80;;;;;;;-17.49;73.53;101237.19;4948369;29;20055;-79
2022/01/05 11:19:20;;;;;;;10.40;5.15;;;;;;;-17.63;73.18;101212.28;4957467;28;20085;-79
2022/01/05 11:22:00;;;;;;;10.38;4.97;;;;;;;-17.64;73.06;101230.50;4952374;29;20051;-78
2022/01/05 11:24:31;;;;;;;;;;;;;;;-17.64;73.15;101231.38;4953919;29;20066;-78
2022/01/05 11:27:02;;;;;;;13.73;4.53;;;;;;;-17.63;73.32;101232.28;4953395;29;19926;-78
2022/01/05 11:29:35;;;;;;;8.32;4.65;;;;;;;-17.63;74.45;101232.28;4956857;28;20127;-79
2022/01/05 11:32:10;;;;;;;5.20;3.50;;;;;;;-18.06;74.13;101125.25;4965208;29;20314;-78
2022/01/05 11:34:42;;;;;;;10.20;4.95;;;;;;;-17.47;73.93;101234.81;4959915;29;20043;-79
2022/01/05 11:37:13;;;;;;;8.90;5.13;;;;;;;-17.58;73.59;101236.16;4955540;29;20083;-79
2022/01/05 11:39:46;;;;;;;8.23;4.47;;;;;;;-17.46;73.87;101236.63;4959764;29;20389;-78
2022/01/05 11:42:21;;;;;;;6.95;4.80;;;;;;;-17.94;73.46;101163.13;4956604;29;20078;-79
2022/01/05 11:44:55;;;;;;;5.03;3.60;;;;;;;-17.56;74.28;101243.84;4962052;29;20062;-79
2022/01/05 11:47:29;;;;;;;4.57;3.90;;;;;;;-17.52;74.07;101249.34;4941236;29;20070;-79